Terminal Aerodrome Forecast
Issued by NWS

Home | Current Version | Previous Version | Text Only | Print | Product List | Glossary On
Versions: 1 2 3 4 5 6 7 8 9 10 11 12 13 14 15 16
000
FTUS45 KRIW 191100
TAFCPR
TAF
KCPR 191131Z 1912/2012 24008KT P6SM SCT200
     FM191500 23012KT P6SM BKN150
     FM191900 28014G22KT P6SM SKC
     FM200200 26007KT P6SM SKC=

USA.gov is the U.S. government's official web portal to all federal, state and local government web resources and services.